Weather at Plzeň-Líně Airport

Public forecast

Using degrees Celsius for public forecast. Weather courtesy of forecast.io.

Current aviation weather report (METAR) for Plzeň-Líně Airport

Retrieved 2021/10/24 07:00 UTC (2 hours ago):

LKLN 240700Z AUTO 00000KT CAVOK M02/M04 Q1031

Closest aviation forecast (TAF) to Plzeň-Líně Airport

Closest forecast is Karlovy Vary International Airport, 34.6 nm (64.1 km) NNW. Retrieved 2021/10/24 06:07 UTC (2 hours ago):

TAF LKKV 240500Z 2406/2512 VRB02KT CAVOK TEMPO 2406/2407 3000 MIFG SCT003 BECMG 2407/2409 12007KT BECMG 2502/2504 2000 BR NSC PROB30 TEMPO 2504/2507 0800 FZFG SCT002